createdAt,value
2023-03-28T00:02:08.082Z,2.53
2023-03-28T00:04:34.741Z,2.47
2023-03-28T00:07:01.379Z,2.50
2023-03-28T00:09:27.973Z,2.30
2023-03-28T00:11:54.551Z,2.77
2023-03-28T00:14:21.136Z,2.93
2023-03-28T00:16:47.771Z,2.43
2023-03-28T00:19:18.098Z,2.47
2023-03-28T00:21:47.450Z,2.60
2023-03-28T00:24:16.729Z,2.47
2023-03-28T00:26:45.071Z,2.43
2023-03-28T00:29:16.663Z,2.50
2023-03-28T00:31:43.356Z,2.27
2023-03-28T00:34:10.389Z,2.40
2023-03-28T00:36:39.690Z,2.80
2023-03-28T00:39:06.988Z,2.40
2023-03-28T00:41:39.739Z,2.27
2023-03-28T00:44:37.280Z,2.77
2023-03-28T00:47:04.531Z,2.50
2023-03-28T00:49:32.145Z,2.40
2023-03-28T00:52:03.236Z,2.53
2023-03-28T00:54:34.199Z,2.90
2023-03-28T00:57:02.709Z,2.80
2023-03-28T00:59:33.641Z,2.33
2023-03-28T01:02:07.228Z,2.23
2023-03-28T01:04:49.559Z,1.90
2023-03-28T01:07:21.586Z,2.37
2023-03-28T01:09:49.370Z,2.40
2023-03-28T01:12:17.652Z,2.33
2023-03-28T01:14:45.413Z,2.63
2023-03-28T01:17:12.770Z,2.47
2023-03-28T01:19:58.917Z,2.30
2023-03-28T01:23:07.168Z,1.83
2023-03-28T01:25:43.481Z,2.20
2023-03-28T01:29:00.249Z,2.30
2023-03-28T01:31:38.039Z,2.40
2023-03-28T01:34:30.590Z,2.70
2023-03-28T01:37:07.338Z,2.37
2023-03-28T01:40:06.359Z,3.93
2023-03-28T01:42:51.578Z,3.73
2023-03-28T01:45:45.372Z,2.73
2023-03-28T01:48:32.289Z,3.10
2023-03-28T01:51:11.298Z,2.30
2023-03-28T01:53:49.794Z,2.50
2023-03-28T01:56:30.667Z,2.10
2023-03-28T01:59:07.599Z,2.20
2023-03-28T02:02:30.089Z,2.30
2023-03-28T02:05:08.524Z,2.33
2023-03-28T02:07:41.002Z,2.00
2023-03-28T02:10:11.840Z,2.50
2023-03-28T02:13:11.529Z,2.30
2023-03-28T02:15:48.978Z,2.23
2023-03-28T02:18:37.207Z,2.57
2023-03-28T02:21:43.560Z,2.23
2023-03-28T02:24:33.225Z,2.27
2023-03-28T02:27:11.319Z,2.10
2023-03-28T02:29:58.094Z,1.97
2023-03-28T02:32:34.024Z,2.00
2023-03-28T02:35:04.834Z,2.20
2023-03-28T02:38:10.460Z,2.30
2023-03-28T02:40:44.786Z,2.00
2023-03-28T02:43:18.294Z,2.30
2023-03-28T02:46:04.143Z,1.63
2023-03-28T02:48:44.123Z,1.90
2023-03-28T02:51:30.110Z,2.00
2023-03-28T02:54:15.330Z,2.37
2023-03-28T02:57:01.953Z,1.90
2023-03-28T02:59:55.476Z,2.10
2023-03-28T03:02:22.963Z,2.23
2023-03-28T03:04:50.637Z,2.40
2023-03-28T03:07:18.998Z,1.77
2023-03-28T03:09:46.873Z,2.20
2023-03-28T03:12:14.287Z,1.90
2023-03-28T03:14:40.895Z,2.00
2023-03-28T03:17:36.995Z,2.00
2023-03-28T03:20:06.823Z,2.20
2023-03-28T03:22:37.601Z,2.33
2023-03-28T03:25:08.128Z,1.93
2023-03-28T03:27:53.386Z,1.80
2023-03-28T03:30:20.390Z,2.00
2023-03-28T03:33:10.357Z,2.10
2023-03-28T03:35:38.514Z,2.13
2023-03-28T03:38:06.418Z,2.00
2023-03-28T03:40:33.577Z,2.20
2023-03-28T03:43:01.014Z,2.20
2023-03-28T03:45:28.278Z,2.27
2023-03-28T03:47:55.096Z,2.20
2023-03-28T03:50:21.769Z,2.00
2023-03-28T03:52:48.443Z,2.40
2023-03-28T03:55:15.430Z,2.40
2023-03-28T03:57:43.483Z,2.20
2023-03-28T04:00:13.416Z,1.80
2023-03-28T04:02:51.848Z,2.10
2023-03-28T04:05:23.564Z,2.10
2023-03-28T04:08:08.885Z,2.20
2023-03-28T04:10:42.346Z,2.03
2023-03-28T04:13:08.972Z,2.30
2023-03-28T04:15:37.376Z,2.00
2023-03-28T04:18:22.610Z,1.97
2023-03-28T04:20:56.249Z,2.07
2023-03-28T04:23:48.681Z,2.27
2023-03-28T04:26:50.248Z,2.27
2023-03-28T04:29:19.169Z,2.20
2023-03-28T04:32:06.001Z,2.00
2023-03-28T04:34:57.314Z,1.87
2023-03-28T04:37:24.912Z,2.20
2023-03-28T04:39:55.764Z,2.10
2023-03-28T04:42:45.496Z,2.03
2023-03-28T04:45:20.838Z,2.60
2023-03-28T04:47:48.707Z,2.20
2023-03-28T04:50:17.523Z,2.57
2023-03-28T04:52:44.598Z,2.20
2023-03-28T04:55:11.774Z,2.30
2023-03-28T04:57:39.250Z,2.40
2023-03-28T05:00:13.191Z,2.47
2023-03-28T05:03:24.587Z,2.60
2023-03-28T05:06:03.429Z,2.70
2023-03-28T05:08:31.186Z,2.67
2023-03-28T05:10:58.139Z,2.30
2023-03-28T05:13:25.996Z,2.37
2023-03-28T05:16:09.326Z,2.60
2023-03-28T05:18:53.931Z,2.57
2023-03-28T05:21:28.499Z,2.17
2023-03-28T05:23:55.705Z,2.77
2023-03-28T05:26:24.339Z,2.50
2023-03-28T05:28:51.388Z,3.20
2023-03-28T05:31:18.042Z,2.73
2023-03-28T05:33:49.224Z,3.10
2023-03-28T05:36:25.492Z,2.83
2023-03-28T05:38:52.128Z,2.63
2023-03-28T05:41:20.569Z,2.80
2023-03-28T05:43:47.325Z,3.07
2023-03-28T05:46:24.211Z,3.20
2023-03-28T05:48:51.157Z,2.80
2023-03-28T05:51:18.214Z,2.90
2023-03-28T05:53:44.806Z,3.30
2023-03-28T05:56:11.429Z,2.83
2023-03-28T05:58:40.239Z,3.37
2023-03-28T06:01:07.912Z,2.60
2023-03-28T06:03:39.737Z,2.73
2023-03-28T06:06:07.434Z,2.60
2023-03-28T06:08:34.142Z,3.20
2023-03-28T06:11:02.559Z,2.30
2023-03-28T06:13:34.944Z,2.37
2023-03-28T06:16:02.933Z,2.80
2023-03-28T06:18:32.730Z,2.63
2023-03-28T06:20:59.569Z,3.00
2023-03-28T06:23:26.385Z,2.63
2023-03-28T06:25:53.002Z,2.77
2023-03-28T06:28:21.153Z,2.77
2023-03-28T06:31:20.085Z,2.40
2023-03-28T06:33:47.612Z,2.40
2023-03-28T06:36:16.922Z,2.93
2023-03-28T06:38:43.935Z,2.47
2023-03-28T06:41:11.124Z,3.00
2023-03-28T06:43:37.778Z,3.10
2023-03-28T06:46:08.830Z,3.60
2023-03-28T06:48:39.483Z,3.30
2023-03-28T06:51:28.587Z,3.60
2023-03-28T06:53:55.483Z,4.53
2023-03-28T06:56:26.461Z,3.97
2023-03-28T06:58:55.026Z,3.87
2023-03-28T07:01:25.520Z,3.60
2023-03-28T07:04:00.253Z,3.63
2023-03-28T07:06:27.932Z,4.47
2023-03-28T07:08:57.150Z,4.13
2023-03-28T07:11:32.809Z,4.10
2023-03-28T07:13:59.566Z,4.27
2023-03-28T07:16:26.304Z,3.77
2023-03-28T07:18:52.994Z,4.33
2023-03-28T07:21:24.110Z,4.37
2023-03-28T07:23:54.093Z,3.10
2023-03-28T07:26:27.599Z,2.77
2023-03-28T07:28:55.161Z,3.20
2023-03-28T07:31:22.276Z,3.30
2023-03-28T07:33:50.271Z,3.07
2023-03-28T07:36:21.535Z,2.73
2023-03-28T07:38:52.673Z,2.30
2023-03-28T07:41:22.427Z,2.30
2023-03-28T07:43:49.221Z,2.93
2023-03-28T07:46:16.485Z,2.30
2023-03-28T07:48:45.597Z,2.50
2023-03-28T07:51:14.357Z,3.07
2023-03-28T07:53:41.426Z,2.80
2023-03-28T07:56:10.626Z,2.80
2023-03-28T07:58:57.310Z,2.73
2023-03-28T08:01:23.950Z,2.50
2023-03-28T08:04:10.000Z,2.97
2023-03-28T08:07:09.699Z,2.60
2023-03-28T08:09:38.414Z,2.87
2023-03-28T08:12:13.354Z,1.83
2023-03-28T08:14:42.278Z,2.40
2023-03-28T08:17:09.697Z,2.10
2023-03-28T08:19:36.902Z,1.90
2023-03-28T08:22:12.729Z,2.07
2023-03-28T08:24:59.796Z,2.57
2023-03-28T08:27:26.468Z,2.43
2023-03-28T08:29:58.199Z,2.50
2023-03-28T08:32:26.894Z,1.80
2023-03-28T08:34:55.644Z,2.60
2023-03-28T08:37:22.266Z,2.50
2023-03-28T08:39:49.955Z,2.40
2023-03-28T08:42:53.389Z,1.90
2023-03-28T08:45:29.098Z,1.90
2023-03-28T08:48:02.975Z,1.97
2023-03-28T08:50:35.260Z,1.90
2023-03-28T08:53:03.808Z,1.80
2023-03-28T08:55:40.654Z,1.60
2023-03-28T08:58:13.313Z,1.80
2023-03-28T09:00:39.932Z,1.97
2023-03-28T09:03:22.994Z,2.43
2023-03-28T09:06:04.812Z,1.23
2023-03-28T09:08:56.410Z,1.60
2023-03-28T09:11:54.223Z,1.97
2023-03-28T09:14:59.629Z,1.80
2023-03-28T09:17:53.900Z,1.27
2023-03-28T09:20:33.271Z,1.47
2023-03-28T09:23:32.602Z,1.40
2023-03-28T09:26:35.901Z,1.17
2023-03-28T09:29:26.019Z,1.37
2023-03-28T09:32:00.184Z,1.20
2023-03-28T09:34:34.274Z,1.10
2023-03-28T09:37:17.693Z,1.47
2023-03-28T09:39:53.493Z,1.40
2023-03-28T09:42:44.140Z,1.10
2023-03-28T09:45:58.687Z,1.30
2023-03-28T09:48:58.222Z,1.53
2023-03-28T09:51:30.012Z,1.60
2023-03-28T09:53:56.936Z,1.27
2023-03-28T09:56:26.363Z,1.10
2023-03-28T09:59:02.419Z,1.10
2023-03-28T10:01:57.766Z,1.30
2023-03-28T10:04:27.192Z,1.30
2023-03-28T10:07:32.408Z,1.13
2023-03-28T10:10:17.643Z,1.20
2023-03-28T10:12:47.081Z,1.40
2023-03-28T10:15:30.414Z,1.50
2023-03-28T10:18:20.235Z,1.30
2023-03-28T10:20:56.336Z,1.43
2023-03-28T10:23:24.931Z,1.13
2023-03-28T10:25:55.434Z,0.93
2023-03-28T10:28:34.425Z,1.40
2023-03-28T10:31:02.781Z,1.30
2023-03-28T10:33:36.138Z,1.20
2023-03-28T10:36:39.865Z,1.10
2023-03-28T10:39:20.822Z,1.30
2023-03-28T10:42:06.167Z,0.83
2023-03-28T10:45:01.280Z,1.20
2023-03-28T10:47:31.334Z,1.30
2023-03-28T10:50:03.140Z,1.70
2023-03-28T10:52:54.508Z,2.30
2023-03-28T10:55:40.658Z,1.20
2023-03-28T10:58:48.674Z,1.20
2023-03-28T11:01:30.710Z,1.10
2023-03-28T11:04:34.880Z,1.30
2023-03-28T11:07:13.226Z,1.10
2023-03-28T11:10:36.590Z,1.53
2023-03-28T11:13:36.939Z,1.17
2023-03-28T11:16:33.121Z,1.43
2023-03-28T11:19:30.747Z,1.17
2023-03-28T11:22:27.997Z,1.53
2023-03-28T11:24:54.533Z,1.30
2023-03-28T11:28:19.445Z,1.40
2023-03-28T11:30:56.043Z,1.40
2023-03-28T11:33:50.238Z,1.20
2023-03-28T11:36:53.473Z,1.40
2023-03-28T11:39:43.436Z,1.47
2023-03-28T11:42:28.822Z,1.40
2023-03-28T11:45:37.878Z,1.73
2023-03-28T11:48:19.398Z,1.50
2023-03-28T11:50:59.514Z,1.20
2023-03-28T11:54:04.133Z,1.33
2023-03-28T11:56:43.823Z,1.33
2023-03-28T11:59:44.957Z,1.50
2023-03-28T12:02:18.678Z,1.20
2023-03-28T12:04:57.123Z,1.30
2023-03-28T12:07:34.509Z,1.60
2023-03-28T12:10:27.355Z,2.33
2023-03-28T12:13:16.966Z,1.63
2023-03-28T12:16:01.485Z,1.53
2023-03-28T12:18:38.658Z,1.47
2023-03-28T12:21:19.186Z,1.53
2023-03-28T12:23:51.951Z,1.60
2023-03-28T12:26:52.206Z,1.30
2023-03-28T12:29:39.069Z,1.60
2023-03-28T12:32:42.164Z,1.37
2023-03-28T12:35:21.476Z,1.90
2023-03-28T12:38:14.312Z,1.60
2023-03-28T12:40:55.481Z,1.60
2023-03-28T12:43:44.854Z,1.40
2023-03-28T12:46:19.554Z,1.90
2023-03-28T12:48:56.168Z,1.50
2023-03-28T12:51:39.814Z,1.73
2023-03-28T12:54:24.897Z,1.53
2023-03-28T12:57:09.182Z,1.60
2023-03-28T13:00:02.915Z,1.80
2023-03-28T13:03:28.814Z,1.60
2023-03-28T13:06:09.330Z,1.60
2023-03-28T13:09:09.903Z,1.60
2023-03-28T13:11:53.384Z,1.70
2023-03-28T13:14:33.349Z,2.00
2023-03-28T13:17:16.389Z,2.23
2023-03-28T13:19:42.966Z,2.10
2023-03-28T13:22:28.344Z,1.83
2023-03-28T13:25:15.068Z,2.10
2023-03-28T13:27:41.778Z,2.33
2023-03-28T13:30:17.310Z,2.00
2023-03-28T13:32:50.955Z,1.83
2023-03-28T13:36:10.582Z,1.67
2023-03-28T13:38:59.242Z,1.83
2023-03-28T13:41:35.668Z,1.80
2023-03-28T13:44:06.508Z,7.20
2023-03-28T13:46:43.161Z,1.60
2023-03-28T13:49:09.723Z,2.85
2023-03-28T13:51:48.881Z,1.77
2023-03-28T13:54:16.094Z,1.90
2023-03-28T13:56:44.763Z,1.80
2023-03-28T13:59:15.700Z,2.08
2023-03-28T14:01:58.367Z,1.70
2023-03-28T14:04:27.781Z,2.10
2023-03-28T14:06:55.675Z,1.77
2023-03-28T14:09:33.638Z,2.42
2023-03-28T14:12:06.968Z,2.00
2023-03-28T14:14:39.748Z,1.83
2023-03-28T14:17:11.577Z,2.28
2023-03-28T14:20:05.476Z,1.95
2023-03-28T14:22:43.174Z,1.70
2023-03-28T14:25:21.608Z,2.03
2023-03-28T14:27:53.874Z,1.70
2023-03-28T14:30:30.996Z,1.80
2023-03-28T14:33:14.276Z,1.70
2023-03-28T14:35:42.394Z,1.80
2023-03-28T14:38:14.991Z,1.90
2023-03-28T14:40:43.791Z,1.90
2023-03-28T14:43:10.827Z,1.80
2023-03-28T14:45:39.957Z,1.90
2023-03-28T14:48:09.275Z,1.67
2023-03-28T14:50:39.208Z,1.97
2023-03-28T14:53:27.701Z,2.20
2023-03-28T14:56:00.794Z,1.57
2023-03-28T14:58:28.768Z,1.70
2023-03-28T15:00:58.797Z,2.07
2023-03-28T15:03:39.235Z,2.20
2023-03-28T15:06:08.154Z,2.10
2023-03-28T15:08:38.025Z,1.83
2023-03-28T15:11:12.307Z,2.40
2023-03-28T15:13:40.364Z,2.60
2023-03-28T15:16:08.653Z,2.67
2023-03-28T15:18:48.631Z,4.10
2023-03-28T15:21:15.608Z,3.67
2023-03-28T15:23:50.707Z,2.70
2023-03-28T15:26:26.100Z,2.27
2023-03-28T15:28:54.974Z,2.90
2023-03-28T15:31:22.547Z,2.50
2023-03-28T15:33:51.730Z,3.30
2023-03-28T15:36:23.222Z,3.83
2023-03-28T15:38:58.285Z,2.40
2023-03-28T15:41:40.666Z,3.80
2023-03-28T15:44:25.388Z,2.70
2023-03-28T15:46:56.221Z,2.43
2023-03-28T15:49:22.923Z,4.33
2023-03-28T15:52:03.646Z,3.10
2023-03-28T15:54:32.242Z,2.27
2023-03-28T15:57:02.295Z,2.60
2023-03-28T15:59:43.870Z,3.63
2023-03-28T16:02:25.614Z,3.40
2023-03-28T16:05:34.384Z,3.67
2023-03-28T16:08:02.352Z,2.80
2023-03-28T16:10:30.330Z,2.40
2023-03-28T16:13:17.063Z,4.53
2023-03-28T16:15:54.459Z,3.13
2023-03-28T16:18:38.838Z,2.33
2023-03-28T16:21:05.834Z,2.50
2023-03-28T16:23:32.502Z,2.40
2023-03-28T16:25:59.314Z,2.53
2023-03-28T16:28:26.283Z,3.60
2023-03-28T16:30:53.189Z,3.23
2023-03-28T16:33:19.854Z,2.50
2023-03-28T16:35:46.489Z,3.17
2023-03-28T16:38:13.160Z,2.00
2023-03-28T16:40:39.952Z,2.20
2023-03-28T16:43:07.907Z,2.30
2023-03-28T16:45:35.270Z,2.80
2023-03-28T16:48:01.968Z,2.90
2023-03-28T16:50:28.596Z,3.23
2023-03-28T16:52:55.314Z,3.27
2023-03-28T16:55:21.924Z,3.10
2023-03-28T16:57:49.347Z,2.10
2023-03-28T17:00:18.522Z,1.90
2023-03-28T17:02:47.123Z,2.20
2023-03-28T17:05:15.814Z,2.27
2023-03-28T17:07:42.690Z,2.43
2023-03-28T17:10:10.276Z,2.30
2023-03-28T17:12:36.976Z,1.80
2023-03-28T17:15:03.942Z,3.70
2023-03-28T17:17:30.713Z,1.87
2023-03-28T17:19:57.491Z,2.90
2023-03-28T17:22:25.595Z,1.83
2023-03-28T17:24:52.297Z,1.80
2023-03-28T17:27:21.174Z,2.40
2023-03-28T17:29:47.807Z,2.13
2023-03-28T17:32:14.472Z,2.20
2023-03-28T17:34:41.172Z,1.83
2023-03-28T17:37:07.778Z,2.20
2023-03-28T17:39:34.386Z,2.20
2023-03-28T17:42:01.372Z,2.50
2023-03-28T17:44:28.304Z,4.10
2023-03-28T17:46:56.689Z,3.80
2023-03-28T17:49:23.505Z,3.20
2023-03-28T17:51:50.255Z,2.00
2023-03-28T17:54:17.294Z,3.67
2023-03-28T17:56:44.594Z,2.33
2023-03-28T17:59:11.876Z,2.77
2023-03-28T18:01:38.621Z,1.97
2023-03-28T18:04:26.458Z,1.50
2023-03-28T18:07:17.748Z,2.20
2023-03-28T18:09:45.081Z,1.73
2023-03-28T18:12:12.737Z,1.80
2023-03-28T18:14:39.732Z,1.50
2023-03-28T18:17:06.724Z,1.50
2023-03-28T18:19:33.396Z,1.80
2023-03-28T18:22:00.769Z,1.80
2023-03-28T18:24:28.011Z,2.03
2023-03-28T18:26:54.691Z,2.27
2023-03-28T18:29:21.733Z,6.30
2023-03-28T18:31:48.705Z,2.60
2023-03-28T18:34:15.369Z,2.40
2023-03-28T18:36:42.383Z,1.90
2023-03-28T18:39:10.372Z,2.10
2023-03-28T18:41:37.448Z,3.90
2023-03-28T18:44:04.687Z,2.53
2023-03-28T18:46:31.536Z,2.50
2023-03-28T18:48:59.615Z,2.47
2023-03-28T18:51:27.793Z,2.20
2023-03-28T18:53:54.873Z,3.17
2023-03-28T18:56:22.032Z,2.50
2023-03-28T18:58:50.877Z,2.23
2023-03-28T19:01:18.638Z,2.30
2023-03-28T19:03:47.045Z,2.30
2023-03-28T19:06:15.354Z,1.53
2023-03-28T19:08:43.609Z,1.50
2023-03-28T19:11:15.496Z,1.97
2023-03-28T19:13:43.064Z,1.50
2023-03-28T19:16:15.393Z,1.50
2023-03-28T19:18:44.167Z,1.90
2023-03-28T19:21:11.919Z,1.93
2023-03-28T19:23:39.221Z,2.30
2023-03-28T19:26:08.154Z,2.70
2023-03-28T19:28:35.476Z,2.53
2023-03-28T19:31:07.510Z,2.30
2023-03-28T19:33:36.134Z,1.80
2023-03-28T19:36:03.412Z,1.90
2023-03-28T19:38:33.569Z,1.80
2023-03-28T19:41:02.268Z,2.70
2023-03-28T19:43:29.881Z,2.70
2023-03-28T19:46:08.586Z,2.10
2023-03-28T19:48:36.033Z,2.10
2023-03-28T19:51:03.288Z,2.33
2023-03-28T19:53:30.054Z,2.93
2023-03-28T19:55:59.658Z,2.70
2023-03-28T19:58:28.786Z,2.30
2023-03-28T20:00:56.882Z,2.50
2023-03-28T20:03:23.551Z,2.70
2023-03-28T20:05:50.190Z,3.00
2023-03-28T20:08:18.820Z,2.67
2023-03-28T20:10:51.352Z,3.70
2023-03-28T20:13:18.484Z,5.30
2023-03-28T20:15:46.180Z,2.50
2023-03-28T20:18:19.833Z,3.07
2023-03-28T20:20:52.089Z,2.60
2023-03-28T20:23:22.284Z,2.33
2023-03-28T20:25:49.961Z,2.77
2023-03-28T20:28:16.683Z,2.63
2023-03-28T20:30:46.562Z,2.40
2023-03-28T20:33:13.820Z,2.40
2023-03-28T20:35:43.526Z,2.60
2023-03-28T20:38:10.359Z,2.33
2023-03-28T20:40:40.664Z,2.73
2023-03-28T20:43:10.080Z,2.90
2023-03-28T20:45:39.958Z,2.70
2023-03-28T20:48:10.432Z,3.27
2023-03-28T20:50:41.367Z,2.40
2023-03-28T20:53:08.238Z,3.50
2023-03-28T20:55:35.842Z,3.43
2023-03-28T20:58:02.471Z,2.70
2023-03-28T21:00:33.757Z,2.23
2023-03-28T21:03:00.581Z,2.50
2023-03-28T21:05:28.788Z,2.53
2023-03-28T21:07:56.669Z,2.67
2023-03-28T21:10:23.297Z,2.53
2023-03-28T21:12:50.895Z,2.60
2023-03-28T21:15:18.343Z,3.20
2023-03-28T21:17:49.117Z,3.10
2023-03-28T21:20:15.885Z,4.53
2023-03-28T21:22:42.571Z,3.73
2023-03-28T21:25:10.579Z,3.13
2023-03-28T21:27:37.578Z,8.43
2023-03-28T21:30:07.998Z,5.93
2023-03-28T21:32:35.901Z,3.80
2023-03-28T21:35:04.123Z,4.77
2023-03-28T21:37:31.392Z,10.10
2023-03-28T21:39:58.003Z,7.47
2023-03-28T21:42:24.885Z,2.70
2023-03-28T21:44:52.006Z,4.93
2023-03-28T21:47:18.666Z,4.50
2023-03-28T21:49:46.122Z,3.33
2023-03-28T21:52:13.107Z,3.40
2023-03-28T21:54:39.770Z,3.90
2023-03-28T21:57:06.409Z,3.20
2023-03-28T21:59:33.101Z,3.50
2023-03-28T22:02:05.291Z,3.20
2023-03-28T22:04:32.324Z,3.20
2023-03-28T22:06:58.945Z,3.10
2023-03-28T22:09:25.612Z,4.33
2023-03-28T22:11:52.711Z,4.10
2023-03-28T22:14:19.274Z,3.00
2023-03-28T22:16:46.049Z,3.20
2023-03-28T22:19:13.784Z,2.50
2023-03-28T22:21:40.413Z,3.60
2023-03-28T22:24:12.851Z,2.43
2023-03-28T22:26:40.645Z,4.00
2023-03-28T22:29:07.756Z,3.40
2023-03-28T22:31:34.378Z,3.40
2023-03-28T22:34:01.051Z,3.87
2023-03-28T22:36:27.792Z,3.13
2023-03-28T22:38:54.932Z,3.00
2023-03-28T22:41:21.685Z,5.53
2023-03-28T22:43:48.335Z,4.70
2023-03-28T22:46:16.467Z,4.83
2023-03-28T22:48:43.844Z,3.70
2023-03-28T22:51:15.797Z,4.20
2023-03-28T22:53:42.560Z,7.50
2023-03-28T22:56:09.315Z,3.43
2023-03-28T22:58:36.259Z,2.83
2023-03-28T23:01:04.070Z,4.30
2023-03-28T23:03:31.149Z,6.97
2023-03-28T23:06:02.025Z,6.43
2023-03-28T23:08:28.722Z,4.10
2023-03-28T23:10:55.784Z,5.40
2023-03-28T23:13:22.391Z,3.13
2023-03-28T23:15:49.011Z,3.17
2023-03-28T23:18:16.447Z,3.13
2023-03-28T23:20:43.648Z,2.97
2023-03-28T23:23:12.060Z,2.83
2023-03-28T23:25:39.086Z,3.00
2023-03-28T23:28:05.829Z,3.73
2023-03-28T23:30:32.487Z,3.23
2023-03-28T23:32:59.192Z,3.20
2023-03-28T23:35:26.066Z,3.70
2023-03-28T23:37:53.267Z,2.77
2023-03-28T23:40:20.627Z,2.97
2023-03-28T23:42:47.435Z,3.10
2023-03-28T23:45:15.761Z,3.20
2023-03-28T23:47:43.684Z,3.10
2023-03-28T23:50:11.181Z,3.20
2023-03-28T23:52:37.857Z,3.17
2023-03-28T23:55:04.806Z,2.90
2023-03-28T23:57:31.465Z,3.00
2023-03-28T23:59:58.148Z,2.57
